Time;durP1;ratioP1;P1;durP2;ratioP2;P2;SDS_P1;SDS_P2;PMS_P1;PMS_P2;Temp;Humidity;BMP_temperature;BMP_pressure;BME280_temperature;BME280_humidity;BME280_pressure;Samples;Min_cycle;Max_cycle;Signal;HPM_P1;HPM_P2
2021/06/09 00:00:36;;;;;;;5.78;4.12;;;;;;;21.21;57.51;98885.17;1708810;81;21018;-60
2021/06/09 00:03:04;;;;;;;5.30;4.72;;;;;;;21.19;57.67;98875.97;1701293;81;21602;-60
2021/06/09 00:05:30;;;;;;;8.25;4.67;;;;;;;21.14;57.85;98879.14;1701348;81;21064;-60
2021/06/09 00:07:57;;;;;;;4.50;4.17;;;;;;;21.03;57.98;98876.83;1701172;81;21139;-60
2021/06/09 00:10:25;;;;;;;4.65;4.35;;;;;;;21.00;58.07;98876.50;1714781;81;21097;-60
2021/06/09 00:12:51;;;;;;;6.17;4.28;;;;;;;20.92;58.17;98875.05;1703384;81;21001;-60
2021/06/09 00:15:18;;;;;;;6.00;4.58;;;;;;;20.92;58.19;98875.88;1701398;81;20926;-60
2021/06/09 00:17:44;;;;;;;5.42;5.00;;;;;;;20.93;58.20;98871.30;1701390;81;20921;-60
2021/06/09 00:20:16;;;;;;;5.12;4.75;;;;;;;20.95;58.18;98875.91;1716943;81;21106;-60
2021/06/09 00:22:43;;;;;;;5.17;4.55;;;;;;;20.94;58.12;98878.31;1701533;81;21009;-58
2021/06/09 00:25:18;;;;;;;5.05;4.37;;;;;;;20.91;58.22;98872.87;1701246;81;21616;-59
2021/06/09 00:27:43;;;;;;;5.10;4.60;;;;;;;20.86;58.42;98873.34;1717647;81;21410;-58
2021/06/09 00:30:11;;;;;;;4.65;4.25;;;;;;;20.80;58.55;98868.44;1720365;81;21064;-58
2021/06/09 00:32:37;;;;;;;5.92;4.80;;;;;;;20.78;58.57;98869.19;1666354;84;21481;-59
2021/06/09 00:35:05;;;;;;;5.78;4.70;;;;;;;20.75;58.79;98862.14;1678090;85;21509;-58
2021/06/09 00:37:31;;;;;;;5.62;5.12;;;;;;;20.74;58.79;98864.55;1678107;85;20964;-59
2021/06/09 00:39:58;;;;;;;5.12;4.67;;;;;;;20.74;58.84;98860.49;1676938;85;20892;-58
2021/06/09 00:42:24;;;;;;;5.33;4.17;;;;;;;20.73;58.95;98858.32;1730302;83;21440;-59
2021/06/09 00:44:51;;;;;;;5.35;4.87;;;;;;;20.66;59.08;98861.75;1730679;83;21111;-58
2021/06/09 00:47:22;;;;;;;4.45;4.05;;;;;;;20.61;59.25;98852.22;1730988;83;20930;-59
2021/06/09 00:49:49;;;;;;;4.87;4.47;;;;;;;20.58;59.29;98862.17;1730720;83;20867;-59
2021/06/09 00:52:15;;;;;;;5.00;4.42;;;;;;;20.55;59.39;98855.91;1731046;83;20958;-59
2021/06/09 00:54:41;;;;;;;4.87;4.30;;;;;;;20.44;59.48;98854.12;1730790;83;21021;-59
2021/06/09 00:57:08;;;;;;;4.35;4.05;;;;;;;20.34;59.58;98859.38;1730756;83;21857;-59
2021/06/09 00:59:36;;;;;;;4.95;4.65;;;;;;;20.19;59.82;98858.61;1730358;83;20950;-60
2021/06/09 01:02:04;;;;;;;5.37;4.42;;;;;;;20.11;60.17;98859.55;1693477;84;21105;-60
2021/06/09 01:04:31;;;;;;;8.60;5.37;;;;;;;20.00;60.37;98856.39;1678121;85;21072;-60
2021/06/09 01:07:00;;;;;;;6.12;5.15;;;;;;;19.95;60.77;98859.01;1678133;85;20943;-59
2021/06/09 01:09:27;;;;;;;7.12;5.55;;;;;;;19.95;60.86;98857.13;1677838;85;21151;-59
2021/06/09 01:11:55;;;;;;;6.90;5.62;;;;;;;19.97;61.00;98860.95;1678083;85;21088;-60
2021/06/09 01:14:22;;;;;;;4.95;4.55;;;;;;;19.97;61.02;98872.55;1678464;85;21019;-60
2021/06/09 01:16:50;;;;;;;5.42;4.33;;;;;;;20.01;60.96;98872.88;1678037;85;21538;-59
2021/06/09 01:19:19;;;;;;;4.67;4.20;;;;;;;20.06;60.87;98873.79;1678278;85;21063;-60
2021/06/09 01:21:46;;;;;;;5.00;4.60;;;;;;;20.09;60.88;98868.42;1678202;85;21881;-60
2021/06/09 01:24:13;;;;;;;7.22;4.95;;;;;;;20.14;60.78;98868.51;1677986;85;21070;-60
2021/06/09 01:26:42;;;;;;;5.65;5.05;;;;;;;20.00;61.08;98868.53;1678136;85;21019;-60
2021/06/09 01:29:09;;;;;;;5.17;4.78;;;;;;;19.88;61.36;98866.45;1676069;85;21034;-59
2021/06/09 01:31:36;;;;;;;5.40;4.92;;;;;;;19.78;61.65;98868.98;1660540;85;20922;-58
2021/06/09 01:34:05;;;;;;;6.28;5.67;;;;;;;19.67;62.01;98871.52;1684099;85;21792;-59
2021/06/09 01:36:38;;;;;;;7.35;5.40;;;;;;;19.63;62.13;98876.30;1685568;85;20955;-59
2021/06/09 01:39:16;;;;;;;5.60;5.00;;;;;;;19.51;62.20;98875.00;1685040;85;21658;-59
2021/06/09 01:41:46;;;;;;;7.12;5.25;;;;;;;19.43;62.47;98886.70;1685557;85;20959;-58
2021/06/09 01:44:13;;;;;;;5.28;4.78;;;;;;;19.31;62.86;98875.12;1685472;85;20979;-58
2021/06/09 01:46:40;;;;;;;7.15;5.00;;;;;;;19.30;63.14;98877.52;1685796;85;21079;-58
2021/06/09 01:49:08;;;;;;;8.25;5.37;;;;;;;19.36;63.13;98883.30;1685159;85;20967;-59
2021/06/09 01:51:35;;;;;;;10.93;5.67;;;;;;;19.45;62.91;98881.34;1684659;85;21079;-59
2021/06/09 01:54:07;;;;;;;5.60;5.10;;;;;;;19.49;62.79;98882.52;1685517;85;20983;-58
2021/06/09 01:56:34;;;;;;;6.33;4.80;;;;;;;19.56;62.61;98882.36;1685717;85;21083;-59
2021/06/09 01:59:14;;;;;;;7.17;4.62;;;;;;;19.58;62.58;98877.00;1667759;83;21152;-59
2021/06/09 02:01:41;;;;;;;5.47;5.03;;;;;;;19.60;62.48;98876.25;1667942;83;21497;-60
2021/06/09 02:04:15;;;;;;;6.20;5.17;;;;;;;19.63;62.31;98874.95;1674826;83;20963;-58
2021/06/09 02:06:44;;;;;;;5.40;5.00;;;;;;;19.65;62.27;98868.25;1657852;83;21038;-60
2021/06/09 02:09:12;;;;;;;5.90;5.37;;;;;;;19.67;62.09;98869.34;1662250;83;21090;-59
2021/06/09 02:11:42;;;;;;;5.97;5.47;;;;;;;19.62;62.11;98872.78;1657621;83;21159;-59
2021/06/09 02:14:10;;;;;;;5.40;4.90;;;;;;;19.63;62.10;98872.25;1658403;83;21418;-59
2021/06/09 02:16:39;;;;;;;6.12;5.60;;;;;;;19.60;62.12;98872.20;1657580;83;21037;-60
2021/06/09 02:19:06;;;;;;;5.47;4.92;;;;;;;19.61;62.08;98871.66;1661183;83;21059;-60
2021/06/09 02:21:34;;;;;;;5.90;5.05;;;;;;;19.63;61.97;98871.70;1660216;83;21083;-60
2021/06/09 02:24:02;;;;;;;5.67;5.08;;;;;;;19.65;61.97;98869.59;1657719;83;21109;-59
2021/06/09 02:26:28;;;;;;;5.97;4.92;;;;;;;19.66;61.90;98869.86;1670831;83;20935;-59
2021/06/09 02:28:54;;;;;;;5.40;4.92;;;;;;;19.69;61.88;98869.91;1658735;83;20931;-59
2021/06/09 02:31:21;;;;;;;6.33;5.33;;;;;;;19.62;61.92;98866.03;1665010;85;21097;-60
2021/06/09 02:33:47;;;;;;;6.03;5.45;;;;;;;19.56;62.19;98868.34;1673748;85;21651;-59
2021/06/09 02:36:14;;;;;;;5.53;5.05;;;;;;;19.51;62.37;98868.25;1675923;85;21160;-59
2021/06/09 02:38:41;;;;;;;5.67;5.22;;;;;;;19.52;62.45;98872.59;1675715;85;20972;-59
2021/06/09 02:41:08;;;;;;;14.15;5.87;;;;;;;19.57;62.49;98871.34;1675215;85;20995;-59
2021/06/09 02:43:35;;;;;;;5.80;5.30;;;;;;;19.60;62.42;98876.25;1675419;85;20928;-59
2021/06/09 02:46:12;;;;;;;5.58;4.80;;;;;;;19.63;62.33;98873.05;1675807;85;20964;-59
2021/06/09 02:48:46;;;;;;;5.75;5.12;;;;;;;19.69;62.23;98875.31;1675833;85;21092;-59
2021/06/09 02:51:18;;;;;;;7.10;5.45;;;;;;;19.70;62.31;98883.17;1674713;84;21002;-59
2021/06/09 02:53:59;;;;;;;6.30;5.67;;;;;;;19.71;62.19;98882.09;1674523;85;21580;-59
2021/06/09 02:56:54;;;;;;;5.75;5.20;;;;;;;19.70;62.14;98874.26;1656175;84;20932;-59
2021/06/09 02:59:35;;;;;;;7.45;6.30;;;;;;;19.74;62.18;98872.70;1644585;87;21013;-59
2021/06/09 03:02:19;;;;;;;6.55;6.05;;;;;;;19.78;62.10;98875.73;1670276;85;21137;-59
2021/06/09 03:04:57;;;;;;;6.05;5.53;;;;;;;19.76;62.09;98873.82;1675741;85;21024;-60
2021/06/09 03:07:34;;;;;;;5.30;4.80;;;;;;;19.82;62.16;98878.22;1675353;85;20971;-58
2021/06/09 03:10:15;;;;;;;5.87;5.37;;;;;;;19.91;61.99;98880.82;1658314;85;21059;-59
2021/06/09 03:13:08;;;;;;;6.87;5.22;;;;;;;20.03;61.77;98880.20;1674899;84;21007;-59
2021/06/09 03:15:55;;;;;;;5.85;5.33;;;;;;;20.19;61.45;98879.38;1675740;85;21174;-59
2021/06/09 03:18:30;;;;;;;5.95;5.45;;;;;;;20.47;60.97;98878.47;1674974;85;21501;-59
2021/06/09 03:21:10;;;;;;;4.87;4.45;;;;;;;20.80;60.72;98873.84;1675149;85;21052;-59
2021/06/09 03:23:51;;;;;;;5.03;4.60;;;;;;;21.08;60.03;98867.98;1687650;84;21494;-59
2021/06/09 03:26:36;;;;;;;5.12;4.72;;;;;;;21.38;58.79;98871.02;1677855;84;20941;-59
2021/06/09 03:29:10;;;;;;;6.03;5.17;;;;;;;21.61;57.83;98859.91;1671916;85;21888;-59
2021/06/09 03:31:43;;;;;;;6.12;5.50;;;;;;;21.85;57.05;98858.48;1635561;85;21470;-61
2021/06/09 03:34:23;;;;;;;5.22;4.62;;;;;;;22.04;56.37;98863.84;1659143;83;21342;-61
2021/06/09 03:36:50;;;;;;;6.67;5.03;;;;;;;22.28;55.69;98867.00;1677480;84;20980;-61
2021/06/09 03:39:20;;;;;;;5.45;4.87;;;;;;;22.36;55.03;98871.11;1672795;85;21729;-58
2021/06/09 03:41:53;;;;;;;5.28;4.78;;;;;;;22.26;54.69;98877.81;1677754;85;21236;-60
2021/06/09 03:44:40;;;;;;;7.85;4.85;;;;;;;22.11;54.84;98882.56;1677958;84;20991;-61
2021/06/09 03:47:06;;;;;;;;;;;;;;;21.98;55.10;98875.70;1651459;84;20984;-60
2021/06/09 03:49:33;;;;;;;4.75;4.40;;;;;;;21.95;55.51;98880.83;1673337;84;20149;-59
2021/06/09 03:52:00;;;;;;;5.90;4.83;;;;;;;21.99;55.59;98875.98;1677534;85;21039;-60
2021/06/09 03:54:30;;;;;;;5.67;5.25;;;;;;;22.05;55.76;98882.27;1649899;87;21826;-59
2021/06/09 03:56:54;;;;;;;7.08;5.58;;;;;;;22.07;56.02;98876.87;1677105;85;20960;-59
2021/06/09 03:59:21;;;;;;;5.85;5.37;;;;;;;22.02;55.89;98878.72;1676508;85;21486;-59
2021/06/09 04:01:48;;;;;;;5.92;5.42;;;;;;;21.95;56.13;98885.68;1678069;85;20952;-60
2021/06/09 04:04:20;;;;;;;7.60;6.78;;;;;;;21.88;56.40;98884.27;1645689;87;21023;-59
2021/06/09 04:06:52;;;;;;;9.03;8.08;;;;;;;21.87;56.70;98883.47;1679637;84;20882;-63
2021/06/09 04:09:21;;;;;;;6.42;5.58;;;;;;;21.88;56.66;98890.50;1665719;85;21467;-62
2021/06/09 04:11:54;;;;;;;5.65;5.03;;;;;;;22.04;56.45;98890.92;1649479;87;20907;-62
2021/06/09 04:14:23;;;;;;;4.95;4.60;;;;;;;22.31;56.01;98894.11;1677530;85;21098;-60
2021/06/09 04:16:52;;;;;;;5.33;4.90;;;;;;;22.64;55.52;98893.28;1677783;85;21116;-61
2021/06/09 04:19:22;;;;;;;4.97;4.65;;;;;;;23.67;53.07;98890.73;1677569;85;21133;-60
2021/06/09 04:21:49;;;;;;;4.85;4.30;;;;;;;23.67;53.07;98890.73;1660785;84;21000;-63
2021/06/09 04:24:15;;;;;;;5.42;4.80;;;;;;;24.24;51.73;98889.99;1650711;84;21123;-64
2021/06/09 04:26:41;;;;;;;6.47;5.70;;;;;;;24.73;50.43;98892.91;1668311;84;20995;-61
2021/06/09 04:29:08;;;;;;;6.72;5.15;;;;;;;25.18;49.33;98884.34;1699211;82;21503;-60
2021/06/09 04:31:34;;;;;;;7.08;5.12;;;;;;;25.58;48.19;98883.61;1684010;83;21171;-65
2021/06/09 04:34:02;;;;;;;6.35;5.00;;;;;;;25.84;47.19;98883.46;1690938;84;21477;-63
2021/06/09 04:36:29;;;;;;;6.80;5.35;;;;;;;26.06;46.72;98883.27;1663360;86;20983;-61
2021/06/09 04:38:55;;;;;;;5.55;4.95;;;;;;;26.26;46.19;98879.03;1672890;85;21099;-64
2021/06/09 04:41:21;;;;;;;9.25;5.03;;;;;;;26.43;45.53;98886.80;1675985;85;21568;-69
2021/06/09 04:43:48;;;;;;;9.33;7.45;;;;;;;26.54;45.23;98886.16;1678170;85;21102;-58
2021/06/09 04:46:19;;;;;;;6.12;5.62;;;;;;;26.68;44.89;98885.72;1677808;85;21064;-60
2021/06/09 04:49:01;;;;;;;5.37;4.95;;;;;;;26.80;44.58;98885.61;1730264;83;20907;-60
2021/06/09 04:51:31;;;;;;;5.53;4.60;;;;;;;26.94;44.34;98892.55;1729479;83;21378;-59
2021/06/09 04:53:58;;;;;;;4.90;4.22;;;;;;;27.09;43.79;98890.22;1720940;83;22140;-58
2021/06/09 04:56:24;;;;;;;5.33;4.92;;;;;;;27.33;43.43;98890.44;1715669;83;21187;-57
2021/06/09 04:58:51;;;;;;;4.92;4.30;;;;;;;27.49;43.04;98890.53;1711709;83;21026;-58
2021/06/09 05:01:17;;;;;;;4.92;4.40;;;;;;;27.75;42.72;98888.23;1717972;83;21477;-64
2021/06/09 05:03:43;;;;;;;6.58;4.72;;;;;;;28.06;42.22;98892.16;1710459;83;20958;-61
2021/06/09 05:06:10;;;;;;;4.80;4.40;;;;;;;28.28;41.81;98892.90;1710519;83;21492;-56
2021/06/09 05:08:37;;;;;;;6.00;4.80;;;;;;;28.50;41.44;98895.78;1714301;83;22143;-56
2021/06/09 05:11:03;;;;;;;4.60;4.20;;;;;;;28.62;41.06;98891.23;1710955;83;21018;-61
2021/06/09 05:13:32;;;;;;;4.85;4.50;;;;;;;28.79;40.44;98890.08;1684269;83;20999;-63
2021/06/09 05:16:05;;;;;;;4.45;3.80;;;;;;;28.93;40.06;98884.06;1723304;83;21007;-62
2021/06/09 05:18:38;;;;;;;4.33;3.95;;;;;;;29.20;39.60;98884.06;1724954;83;21049;-63
2021/06/09 05:21:05;;;;;;;4.78;4.37;;;;;;;29.52;39.17;98883.11;1728457;83;21826;-62
2021/06/09 05:23:40;;;;;;;5.03;4.62;;;;;;;29.78;38.61;98886.08;1728073;83;20927;-61
2021/06/09 05:26:06;;;;;;;5.87;4.40;;;;;;;29.94;38.22;98885.45;1729734;83;20950;-59
2021/06/09 05:28:45;;;;;;;7.12;4.62;;;;;;;30.14;37.88;98884.13;1729734;83;21032;-62
2021/06/09 05:31:12;;;;;;;6.78;4.65;;;;;;;30.41;37.44;98883.22;1724763;83;22326;-61
2021/06/09 05:33:38;;;;;;;6.55;4.95;;;;;;;30.75;37.05;98883.95;1723638;81;21148;-63
2021/06/09 05:36:05;;;;;;;7.08;6.10;;;;;;;31.12;36.62;98885.68;1715573;83;20985;-63
2021/06/09 05:38:32;;;;;;;8.60;4.83;;;;;;;31.57;35.75;98886.27;1657369;86;21764;-65
2021/06/09 05:40:59;;;;;;;5.58;4.75;;;;;;;32.01;35.03;98889.89;1679217;85;20975;-63
2021/06/09 05:43:27;;;;;;;5.67;4.50;;;;;;;32.44;34.47;98886.50;1655075;86;21124;-61
2021/06/09 05:45:55;;;;;;;4.83;3.90;;;;;;;32.74;33.93;98889.62;1681204;85;21825;-61
2021/06/09 05:48:21;;;;;;;5.97;5.42;;;;;;;32.86;33.41;98889.72;1656018;86;21555;-62
2021/06/09 05:50:51;;;;;;;5.00;4.15;;;;;;;33.04;33.27;98893.23;1683662;85;21046;-61
2021/06/09 05:53:17;;;;;;;4.58;4.10;;;;;;;33.39;32.82;98883.66;1655957;86;21025;-62
2021/06/09 05:55:46;;;;;;;8.33;3.47;;;;;;;33.72;32.45;98881.57;1685195;85;21528;-59
2021/06/09 05:58:19;;;;;;;4.47;3.72;;;;;;;34.07;31.58;98881.56;1675467;83;21108;-62
2021/06/09 06:00:54;;;;;;;6.55;4.30;;;;;;;34.56;31.05;98883.36;1658235;83;20976;-57
2021/06/09 06:03:25;;;;;;;6.80;4.08;;;;;;;34.67;30.72;98873.49;1690444;84;22555;-63
2021/06/09 06:06:01;;;;;;;7.10;4.72;;;;;;;34.75;30.62;98871.17;1693730;82;21100;-63
2021/06/09 06:08:27;;;;;;;7.20;4.83;;;;;;;34.69;30.39;98870.38;1687303;82;21036;-62
2021/06/09 06:10:55;;;;;;;9.48;4.12;;;;;;;34.73;30.27;98874.86;1687404;82;21150;-63
2021/06/09 06:13:26;;;;;;;7.45;4.25;;;;;;;34.97;29.75;98873.27;1641776;85;21013;-61
2021/06/09 06:15:56;;;;;;;4.55;4.10;;;;;;;35.26;29.61;98875.83;1657926;83;21031;-63
2021/06/09 06:18:38;;;;;;;3.98;3.62;;;;;;;35.46;29.43;98870.73;1658722;85;21127;-62
2021/06/09 06:21:07;;;;;;;7.40;3.80;;;;;;;35.67;28.94;98872.80;1650029;85;21001;-62
2021/06/09 06:23:33;;;;;;;7.62;4.30;;;;;;;35.89;28.57;98875.62;1658735;83;21146;-61
2021/06/09 06:25:59;;;;;;;8.30;4.28;;;;;;;35.99;28.29;98877.07;1658487;83;20968;-63
2021/06/09 06:28:26;;;;;;;10.95;4.65;;;;;;;35.99;28.52;98879.27;1658425;83;21495;-62
2021/06/09 06:30:53;;;;;;;5.15;4.20;;;;;;;36.12;28.31;98876.70;1667865;83;21082;-62
2021/06/09 06:33:25;;;;;;;6.60;3.45;;;;;;;36.20;28.18;98882.67;1657947;86;20899;-62
2021/06/09 06:35:52;;;;;;;11.08;3.75;;;;;;;36.18;28.07;98875.30;1678178;85;21156;-63
2021/06/09 06:38:21;;;;;;;8.68;3.75;;;;;;;36.16;28.15;98879.59;1677971;85;21019;-63
2021/06/09 06:40:48;;;;;;;4.20;3.70;;;;;;;35.91;28.26;98878.83;1678158;85;21023;-63
2021/06/09 06:43:16;;;;;;;6.12;3.33;;;;;;;35.82;28.30;98874.03;1678020;85;21568;-62
2021/06/09 06:45:43;;;;;;;5.42;3.47;;;;;;;35.82;28.48;98876.80;1678032;85;21517;-63
2021/06/09 06:48:11;;;;;;;4.55;3.20;;;;;;;35.91;28.32;98881.59;1678056;85;21003;-64
2021/06/09 06:50:38;;;;;;;4.60;3.30;;;;;;;35.86;28.40;98874.93;1678070;85;21035;-63
2021/06/09 06:53:08;;;;;;;6.40;4.08;;;;;;;35.94;28.26;98878.13;1678036;85;20971;-63
2021/06/09 06:55:36;;;;;;;4.05;3.40;;;;;;;36.05;27.98;98875.13;1678152;85;21506;-61
2021/06/09 06:58:02;;;;;;;5.30;3.83;;;;;;;36.20;27.16;98874.36;1678161;85;21007;-62
2021/06/09 07:00:33;;;;;;;6.28;3.72;;;;;;;36.15;26.94;98873.23;1677984;85;21118;-64
2021/06/09 07:03:01;;;;;;;5.62;3.90;;;;;;;36.30;26.95;98878.00;1677990;85;20967;-63
2021/06/09 07:05:29;;;;;;;6.22;3.87;;;;;;;36.42;26.83;98877.93;1661822;83;21028;-63
2021/06/09 07:07:57;;;;;;;7.35;4.50;;;;;;;36.66;26.90;98881.16;1675640;85;20920;-62
2021/06/09 07:10:24;;;;;;;6.42;3.92;;;;;;;36.95;26.90;98875.22;1649113;85;20975;-63
2021/06/09 07:12:50;;;;;;;4.53;3.80;;;;;;;37.10;26.24;98881.94;1678403;85;21791;-64
2021/06/09 07:15:20;;;;;;;7.00;4.25;;;;;;;37.16;26.05;98882.44;1678137;85;20963;-64
2021/06/09 07:17:51;;;;;;;10.15;5.05;;;;;;;37.28;25.79;98876.23;1677922;85;21042;-63
2021/06/09 07:20:22;;;;;;;7.90;4.42;;;;;;;37.63;25.45;98872.88;1678246;85;21454;-63
2021/06/09 07:22:48;;;;;;;4.60;3.35;;;;;;;38.19;25.06;98868.33;1681062;83;20870;-61
2021/06/09 07:25:15;;;;;;;5.00;3.60;;;;;;;38.66;24.52;98871.63;1677998;85;21154;-63
2021/06/09 07:27:45;;;;;;;3.85;3.52;;;;;;;39.05;23.86;98865.95;1685529;83;21001;-62
2021/06/09 07:30:14;;;;;;;5.42;4.15;;;;;;;39.30;23.76;98868.55;1727850;81;21107;-63
2021/06/09 07:32:46;;;;;;;8.55;4.40;;;;;;;39.57;23.68;98868.75;1667182;84;21049;-63
2021/06/09 07:35:14;;;;;;;9.80;4.25;;;;;;;39.93;23.10;98864.47;1683931;85;21098;-62
2021/06/09 07:37:50;;;;;;;5.15;3.30;;;;;;;40.21;22.63;98870.41;1686620;85;21600;-63
2021/06/09 07:40:29;;;;;;;7.33;3.90;;;;;;;40.35;22.17;98866.97;1686785;85;21034;-63
2021/06/09 07:43:00;;;;;;;5.55;3.30;;;;;;;40.48;21.79;98864.16;1686718;85;21104;-63
2021/06/09 07:45:27;;;;;;;3.65;3.35;;;;;;;40.44;21.81;98867.48;1686568;85;21071;-62
2021/06/09 07:47:54;;;;;;;10.78;4.35;;;;;;;40.62;21.75;98865.08;1686682;85;21024;-63
2021/06/09 07:50:44;;;;;;;5.10;3.02;;;;;;;40.94;21.50;98864.59;1686618;85;21946;-62
2021/06/09 07:53:11;;;;;;;15.45;6.12;;;;;;;40.99;20.44;98870.62;1670680;85;38303;-63
2021/06/09 07:55:43;;;;;;;11.22;5.72;;;;;;;40.84;20.41;98868.88;1686507;85;21063;-63
2021/06/09 07:58:10;;;;;;;11.03;5.87;;;;;;;40.73;20.41;98870.77;1683622;83;20974;-63
2021/06/09 08:00:36;;;;;;;5.40;3.40;;;;;;;40.53;20.39;98872.97;1686761;85;21406;-63
2021/06/09 08:03:03;;;;;;;3.58;2.75;;;;;;;40.27;20.57;98870.86;1686464;85;21166;-63
2021/06/09 08:05:30;;;;;;;4.25;3.75;;;;;;;39.99;20.95;98865.16;1686562;85;21002;-61
2021/06/09 08:07:57;;;;;;;7.87;4.12;;;;;;;39.97;20.76;98861.94;1686568;85;20923;-63
2021/06/09 08:10:23;;;;;;;12.85;5.33;;;;;;;39.60;21.25;98868.00;1686521;83;20931;-63
2021/06/09 08:12:52;;;;;;;11.30;5.85;;;;;;;39.71;21.41;98868.95;1686769;85;21149;-63
2021/06/09 08:15:19;;;;;;;12.05;4.85;;;;;;;39.30;21.63;98874.11;1686480;83;21149;-65
2021/06/09 08:17:46;;;;;;;6.55;3.22;;;;;;;39.03;21.82;98873.86;1686872;85;21019;-63
2021/06/09 08:20:14;;;;;;;8.35;3.05;;;;;;;38.76;21.94;98874.41;1686591;85;21013;-63
2021/06/09 08:22:44;;;;;;;5.00;2.92;;;;;;;38.44;22.33;98871.59;1686925;85;21098;-62
2021/06/09 08:25:09;;;;;;;3.95;3.42;;;;;;;37.95;22.92;98878.34;1686399;85;20911;-63
2021/06/09 08:27:36;;;;;;;7.60;3.27;;;;;;;37.88;23.49;98871.27;1686837;85;21787;-63
2021/06/09 08:30:04;;;;;;;4.72;2.83;;;;;;;37.99;23.64;98874.46;1686470;85;20966;-63
2021/06/09 08:32:31;;;;;;;4.37;3.58;;;;;;;37.99;23.60;98880.63;1667906;85;21002;-63
2021/06/09 08:34:57;;;;;;;5.33;2.87;;;;;;;37.59;23.25;98880.91;1681847;83;20994;-63
2021/06/09 08:37:26;;;;;;;5.35;3.20;;;;;;;37.08;23.90;98881.47;1675738;85;20971;-62
2021/06/09 08:39:57;;;;;;;4.17;3.00;;;;;;;36.80;24.46;98884.89;1675682;85;21066;-63
2021/06/09 08:42:25;;;;;;;3.92;2.90;;;;;;;36.63;24.88;98881.91;1670713;84;21027;-63
2021/06/09 08:44:52;;;;;;;4.28;2.60;;;;;;;36.58;24.69;98882.14;1662011;85;21054;-63
2021/06/09 08:47:21;;;;;;;4.33;2.72;;;;;;;36.45;24.92;98884.75;1675768;85;21564;-62
2021/06/09 08:49:48;;;;;;;6.53;2.40;;;;;;;36.61;24.99;98884.20;1676063;85;21011;-63
2021/06/09 08:52:14;;;;;;;3.83;2.77;;;;;;;36.57;24.61;98879.73;1675791;85;22087;-62
2021/06/09 08:54:46;;;;;;;8.10;2.72;;;;;;;36.50;24.73;98881.14;1675748;85;21034;-63
2021/06/09 08:57:13;;;;;;;3.27;2.52;;;;;;;36.70;24.61;98885.42;1675703;85;21066;-62
2021/06/09 08:59:40;;;;;;;2.92;2.67;;;;;;;36.83;24.50;98883.61;1675814;85;20975;-63
2021/06/09 09:02:10;;;;;;;3.35;2.58;;;;;;;36.76;24.16;98884.81;1675728;85;21436;-63
2021/06/09 09:04:38;;;;;;;6.58;2.87;;;;;;;36.89;23.49;98877.99;1675660;85;21087;-63
2021/06/09 09:07:06;;;;;;;3.02;2.83;;;;;;;37.07;23.35;98884.03;1675727;85;21007;-63
2021/06/09 09:09:33;;;;;;;10.20;2.55;;;;;;;37.11;23.54;98883.52;1675763;85;21537;-64
2021/06/09 09:12:01;;;;;;;4.53;2.45;;;;;;;36.92;23.65;98882.05;1675775;85;21011;-61
2021/06/09 09:14:27;;;;;;;3.00;2.77;;;;;;;36.39;24.04;98884.20;1675902;85;20908;-62
2021/06/09 09:17:09;;;;;;;5.10;2.62;;;;;;;35.90;24.35;98891.08;1675856;85;21148;-62
2021/06/09 09:19:40;;;;;;;3.50;2.37;;;;;;;35.31;24.88;98897.14;1676092;85;20932;-62
2021/06/09 09:22:11;;;;;;;3.08;2.77;;;;;;;34.64;25.30;98897.65;1675938;85;20952;-61
2021/06/09 09:24:42;;;;;;;4.17;2.60;;;;;;;34.13;25.49;98889.28;1675925;85;20917;-62
2021/06/09 09:27:10;;;;;;;5.50;3.05;;;;;;;33.79;26.23;98892.89;1676090;85;20889;-62
2021/06/09 09:29:36;;;;;;;4.28;3.27;;;;;;;33.64;26.86;98890.71;1676107;85;21106;-62
2021/06/09 09:32:07;;;;;;;2.70;2.50;;;;;;;33.54;27.38;98887.76;1656652;85;21093;-62
2021/06/09 09:34:46;;;;;;;5.40;3.10;;;;;;;33.46;27.67;98886.67;1676255;85;21233;-62
2021/06/09 09:37:23;;;;;;;3.30;2.62;;;;;;;33.37;26.89;98887.88;1675976;85;21531;-60
2021/06/09 09:40:17;;;;;;;3.02;2.72;;;;;;;33.28;26.91;98886.55;1676233;85;20952;-61
2021/06/09 09:42:49;;;;;;;3.92;2.95;;;;;;;33.30;27.35;98872.42;1655709;85;21004;-62
2021/06/09 09:45:27;;;;;;;2.00;1.90;;;;;;;33.39;27.23;98882.84;1676028;85;21039;-63
2021/06/09 09:48:17;;;;;;;3.95;2.60;;;;;;;33.41;27.19;98876.41;1675842;85;21039;-63
2021/06/09 09:50:50;;;;;;;3.92;2.42;;;;;;;33.25;27.10;98882.27;1676037;85;21122;-62
2021/06/09 09:53:21;;;;;;;2.92;2.30;;;;;;;33.17;26.81;98873.47;1688194;84;21578;-62
2021/06/09 09:56:10;;;;;;;3.70;2.40;;;;;;;33.10;26.48;98877.33;1680437;84;21134;-62
2021/06/09 09:59:00;;;;;;;5.25;2.47;;;;;;;32.98;26.58;98873.08;1675879;85;21639;-64
2021/06/09 10:01:27;;;;;;;2.52;2.33;;;;;;;32.97;26.78;98872.27;1657554;84;20996;-61
2021/06/09 10:03:56;;;;;;;3.00;2.22;;;;;;;32.87;26.47;98866.56;1693067;84;21098;-64
2021/06/09 10:06:39;;;;;;;4.50;2.92;;;;;;;32.87;26.52;98871.26;1676044;85;21505;-59
2021/06/09 10:09:10;;;;;;;4.08;2.52;;;;;;;32.98;27.29;98871.13;1648258;84;21141;-60
2021/06/09 10:11:47;;;;;;;4.12;2.47;;;;;;;33.09;28.04;98868.81;1650482;84;20950;-59
2021/06/09 10:14:20;;;;;;;7.35;5.00;;;;;;;33.10;28.00;98871.81;1663982;84;21012;-59
2021/06/09 10:17:00;;;;;;;6.78;4.78;;;;;;;32.88;26.74;98865.97;1659539;84;21045;-60
2021/06/09 10:19:29;;;;;;;7.72;3.17;;;;;;;32.65;27.34;98870.11;1669440;84;20999;-60
2021/06/09 10:22:18;;;;;;;2.70;2.50;;;;;;;32.41;28.37;98880.86;1651037;84;21228;-56
2021/06/09 10:24:55;;;;;;;7.00;2.77;;;;;;;32.06;29.62;98876.79;1629656;87;21015;-58
2021/06/09 10:27:50;;;;;;;5.53;2.92;;;;;;;31.85;31.06;98870.85;1657953;85;20991;-57
2021/06/09 10:30:27;;;;;;;3.25;2.70;;;;;;;31.78;31.83;98865.27;1651304;85;20988;-61
2021/06/09 10:33:00;;;;;;;2.77;2.50;;;;;;;31.74;31.61;98864.30;1662234;85;20983;-59
2021/06/09 10:35:36;;;;;;;3.70;2.90;;;;;;;31.72;31.32;98854.77;1639427;86;21843;-57
2021/06/09 10:38:03;;;;;;;;;;;;;;;31.69;31.37;98847.97;1689370;84;21054;-58
2021/06/09 10:40:30;;;;;;;3.22;2.75;;;;;;;31.48;30.43;98846.98;1724375;83;20144;-58
2021/06/09 10:42:59;;;;;;;4.42;2.80;;;;;;;31.27;30.76;98842.39;1724233;83;20977;-60
2021/06/09 10:45:26;;;;;;;5.47;2.75;;;;;;;31.01;31.60;98850.58;1727584;83;21484;-63
2021/06/09 10:47:55;;;;;;;3.17;2.50;;;;;;;30.81;31.82;98852.50;1726687;83;21147;-62
2021/06/09 10:50:22;;;;;;;3.37;2.40;;;;;;;30.60;32.00;98839.09;1727133;83;21131;-62
2021/06/09 10:52:48;;;;;;;5.25;2.77;;;;;;;30.54;32.63;98846.64;1724405;82;21018;-61
2021/06/09 10:55:14;;;;;;;5.30;2.60;;;;;;;30.44;32.27;98835.94;1728461;83;21006;-63
2021/06/09 10:57:41;;;;;;;3.45;3.15;;;;;;;30.39;32.00;98838.27;1727144;83;21105;-62
2021/06/09 11:00:09;;;;;;;5.47;3.72;;;;;;;30.40;31.70;98828.11;1677815;83;21159;-61
2021/06/09 11:02:36;;;;;;;4.33;3.10;;;;;;;30.40;31.18;98826.16;1729382;83;21009;-62
2021/06/09 11:05:07;;;;;;;7.90;3.62;;;;;;;30.42;30.94;98823.11;1725214;81;21046;-66
2021/06/09 11:07:42;;;;;;;4.25;2.85;;;;;;;30.46;30.78;98817.22;1724316;83;20950;-60
2021/06/09 11:10:32;;;;;;;3.17;2.52;;;;;;;30.49;30.58;98814.67;1711823;81;21131;-60
2021/06/09 11:12:59;;;;;;;2.27;2.08;;;;;;;30.52;30.33;98809.92;1721006;83;21176;-61
2021/06/09 11:15:31;;;;;;;3.12;2.08;;;;;;;30.56;30.08;98805.41;1728509;83;21476;-61
2021/06/09 11:17:57;;;;;;;2.60;2.30;;;;;;;30.55;30.02;98803.81;1727482;83;20981;-61
2021/06/09 11:20:40;;;;;;;8.78;2.33;;;;;;;30.56;30.14;98814.20;1729651;83;21464;-60
2021/06/09 11:23:13;;;;;;;5.80;2.25;;;;;;;30.56;29.10;98801.30;1724237;81;21017;-62
2021/06/09 11:25:46;;;;;;;1.70;1.60;;;;;;;30.64;28.27;98796.14;1685693;83;21041;-60
2021/06/09 11:28:19;;;;;;;2.40;1.60;;;;;;;30.60;27.79;98795.17;1710305;83;21097;-62
2021/06/09 11:31:07;;;;;;;2.40;1.80;;;;;;;30.55;27.62;98794.20;1702334;81;20936;-65
2021/06/09 11:33:47;;;;;;;5.28;2.37;;;;;;;30.50;27.82;98788.05;1685945;83;21575;-55
2021/06/09 11:36:28;;;;;;;2.40;2.00;;;;;;;30.50;29.03;98790.78;1658912;83;21082;-60
2021/06/09 11:39:14;;;;;;;4.42;2.40;;;;;;;30.52;30.52;98779.73;1654358;83;21160;-59
2021/06/09 11:41:42;;;;;;;2.35;2.10;;;;;;;30.33;30.20;98779.13;1653042;83;21058;-61
2021/06/09 11:44:37;;;;;;;2.72;2.22;;;;;;;30.23;29.93;98777.22;1655076;83;21054;-61
2021/06/09 11:47:27;;;;;;;4.05;2.22;;;;;;;30.14;29.83;98782.66;1654806;83;21596;-60
2021/06/09 11:50:27;;;;;;;2.83;1.80;;;;;;;29.92;30.06;98782.14;1655892;83;21154;-58